sensor_id;sensor_type;location;lat;lon;timestamp;P1;durP1;ratioP1;P2;durP2;ratioP2
36211;SDS011;22247;48.586;13.492;2024-03-08T00:00:21;36.05;;;14.85;;
36211;SDS011;22247;48.586;13.492;2024-03-08T00:02:45;32.75;;;14.07;;
36211;SDS011;22247;48.586;13.492;2024-03-08T00:05:11;37.72;;;15.70;;
36211;SDS011;22247;48.586;13.492;2024-03-08T00:07:39;31.92;;;13.75;;
36211;SDS011;22247;48.586;13.492;2024-03-08T00:10:08;33.83;;;14.68;;
36211;SDS011;22247;48.586;13.492;2024-03-08T00:12:37;34.38;;;14.32;;
36211;SDS011;22247;48.586;13.492;2024-03-08T00:15:11;41.70;;;15.60;;
36211;SDS011;22247;48.586;13.492;2024-03-08T00:17:40;31.38;;;13.73;;
36211;SDS011;22247;48.586;13.492;2024-03-08T00:20:10;31.25;;;13.45;;
36211;SDS011;22247;48.586;13.492;2024-03-08T00:22:35;38.40;;;15.82;;
36211;SDS011;22247;48.586;13.492;2024-03-08T00:25:03;32.88;;;14.07;;
36211;SDS011;22247;48.586;13.492;2024-03-08T00:27:32;33.22;;;14.52;;
36211;SDS011;22247;48.586;13.492;2024-03-08T00:30:02;34.67;;;14.57;;
36211;SDS011;22247;48.586;13.492;2024-03-08T00:32:29;33.10;;;14.38;;
36211;SDS011;22247;48.586;13.492;2024-03-08T00:34:55;37.15;;;14.68;;
36211;SDS011;22247;48.586;13.492;2024-03-08T00:37:20;36.80;;;14.82;;
36211;SDS011;22247;48.586;13.492;2024-03-08T00:39:46;34.90;;;13.85;;
36211;SDS011;22247;48.586;13.492;2024-03-08T00:42:13;36.70;;;14.73;;
36211;SDS011;22247;48.586;13.492;2024-03-08T00:44:41;30.83;;;13.75;;
36211;SDS011;22247;48.586;13.492;2024-03-08T00:47:09;34.13;;;14.77;;
36211;SDS011;22247;48.586;13.492;2024-03-08T00:49:35;34.30;;;14.80;;
36211;SDS011;22247;48.586;13.492;2024-03-08T00:52:04;35.85;;;14.35;;
36211;SDS011;22247;48.586;13.492;2024-03-08T00:54:34;31.88;;;14.88;;
36211;SDS011;22247;48.586;13.492;2024-03-08T00:57:00;34.70;;;14.65;;
36211;SDS011;22247;48.586;13.492;2024-03-08T00:59:26;35.75;;;15.15;;
36211;SDS011;22247;48.586;13.492;2024-03-08T01:01:54;42.20;;;15.85;;
36211;SDS011;22247;48.586;13.492;2024-03-08T01:04:19;36.97;;;15.35;;
36211;SDS011;22247;48.586;13.492;2024-03-08T01:06:47;36.22;;;15.85;;
36211;SDS011;22247;48.586;13.492;2024-03-08T01:09:14;37.00;;;15.75;;
36211;SDS011;22247;48.586;13.492;2024-03-08T01:11:41;34.53;;;15.32;;
36211;SDS011;22247;48.586;13.492;2024-03-08T01:14:06;33.67;;;14.13;;
36211;SDS011;22247;48.586;13.492;2024-03-08T01:16:30;36.40;;;15.05;;
36211;SDS011;22247;48.586;13.492;2024-03-08T01:18:57;32.88;;;14.90;;
36211;SDS011;22247;48.586;13.492;2024-03-08T01:21:26;34.65;;;14.35;;
36211;SDS011;22247;48.586;13.492;2024-03-08T01:23:53;41.25;;;15.48;;
36211;SDS011;22247;48.586;13.492;2024-03-08T01:26:20;39.13;;;15.90;;
36211;SDS011;22247;48.586;13.492;2024-03-08T01:28:44;33.85;;;15.63;;
36211;SDS011;22247;48.586;13.492;2024-03-08T01:31:11;36.33;;;15.18;;
36211;SDS011;22247;48.586;13.492;2024-03-08T01:33:38;42.90;;;17.00;;
36211;SDS011;22247;48.586;13.492;2024-03-08T01:36:06;38.15;;;15.15;;
36211;SDS011;22247;48.586;13.492;2024-03-08T01:38:33;31.70;;;14.07;;
36211;SDS011;22247;48.586;13.492;2024-03-08T01:41:02;36.88;;;16.00;;
36211;SDS011;22247;48.586;13.492;2024-03-08T01:43:30;36.50;;;15.38;;
36211;SDS011;22247;48.586;13.492;2024-03-08T01:45:56;38.10;;;15.43;;
36211;SDS011;22247;48.586;13.492;2024-03-08T01:48:26;34.85;;;15.30;;
36211;SDS011;22247;48.586;13.492;2024-03-08T01:50:56;39.28;;;15.63;;
36211;SDS011;22247;48.586;13.492;2024-03-08T01:53:21;34.47;;;15.25;;
36211;SDS011;22247;48.586;13.492;2024-03-08T01:55:51;39.75;;;15.90;;
36211;SDS011;22247;48.586;13.492;2024-03-08T01:58:18;34.63;;;14.48;;
36211;SDS011;22247;48.586;13.492;2024-03-08T02:00:46;39.53;;;15.80;;
36211;SDS011;22247;48.586;13.492;2024-03-08T02:03:15;39.42;;;15.68;;
36211;SDS011;22247;48.586;13.492;2024-03-08T02:05:40;41.90;;;16.67;;
36211;SDS011;22247;48.586;13.492;2024-03-08T02:10:37;34.05;;;14.45;;
36211;SDS011;22247;48.586;13.492;2024-03-08T02:13:02;30.60;;;13.20;;
36211;SDS011;22247;48.586;13.492;2024-03-08T02:15:51;35.15;;;15.50;;
36211;SDS011;22247;48.586;13.492;2024-03-08T02:18:19;39.80;;;16.65;;
36211;SDS011;22247;48.586;13.492;2024-03-08T02:20:45;39.58;;;16.27;;
36211;SDS011;22247;48.586;13.492;2024-03-08T02:23:19;47.97;;;17.02;;
36211;SDS011;22247;48.586;13.492;2024-03-08T02:28:12;39.97;;;16.83;;
36211;SDS011;22247;48.586;13.492;2024-03-08T02:30:39;38.35;;;16.13;;
36211;SDS011;22247;48.586;13.492;2024-03-08T02:35:29;40.90;;;16.02;;
36211;SDS011;22247;48.586;13.492;2024-03-08T02:37:54;49.00;;;17.98;;
36211;SDS011;22247;48.586;13.492;2024-03-08T02:40:23;37.63;;;16.13;;
36211;SDS011;22247;48.586;13.492;2024-03-08T02:42:48;39.65;;;15.75;;
36211;SDS011;22247;48.586;13.492;2024-03-08T02:45:14;39.70;;;16.25;;
36211;SDS011;22247;48.586;13.492;2024-03-08T02:47:47;35.47;;;15.75;;
36211;SDS011;22247;48.586;13.492;2024-03-08T02:50:16;38.83;;;16.13;;
36211;SDS011;22247;48.586;13.492;2024-03-08T02:52:41;41.40;;;17.77;;
36211;SDS011;22247;48.586;13.492;2024-03-08T02:55:06;39.47;;;17.00;;
36211;SDS011;22247;48.586;13.492;2024-03-08T02:57:34;42.63;;;18.13;;
36211;SDS011;22247;48.586;13.492;2024-03-08T02:59:59;48.05;;;17.27;;
36211;SDS011;22247;48.586;13.492;2024-03-08T03:02:26;42.63;;;18.05;;
36211;SDS011;22247;48.586;13.492;2024-03-08T03:04:50;42.15;;;16.90;;
36211;SDS011;22247;48.586;13.492;2024-03-08T03:07:19;41.88;;;17.27;;
36211;SDS011;22247;48.586;13.492;2024-03-08T03:09:44;40.60;;;16.20;;
36211;SDS011;22247;48.586;13.492;2024-03-08T03:12:09;41.72;;;15.93;;
36211;SDS011;22247;48.586;13.492;2024-03-08T03:14:35;48.42;;;17.73;;
36211;SDS011;22247;48.586;13.492;2024-03-08T03:17:02;44.92;;;17.42;;
36211;SDS011;22247;48.586;13.492;2024-03-08T03:19:27;41.78;;;16.40;;
36211;SDS011;22247;48.586;13.492;2024-03-08T03:21:52;42.17;;;15.77;;
36211;SDS011;22247;48.586;13.492;2024-03-08T03:24:16;43.45;;;16.33;;
36211;SDS011;22247;48.586;13.492;2024-03-08T03:26:42;42.50;;;15.25;;
36211;SDS011;22247;48.586;13.492;2024-03-08T03:29:07;44.63;;;17.58;;
36211;SDS011;22247;48.586;13.492;2024-03-08T03:31:32;44.47;;;17.65;;
36211;SDS011;22247;48.586;13.492;2024-03-08T03:33:57;37.35;;;14.00;;
36211;SDS011;22247;48.586;13.492;2024-03-08T03:36:29;42.30;;;15.77;;
36211;SDS011;22247;48.586;13.492;2024-03-08T03:38:58;41.97;;;17.70;;
36211;SDS011;22247;48.586;13.492;2024-03-08T03:41:40;39.03;;;15.80;;
36211;SDS011;22247;48.586;13.492;2024-03-08T03:44:08;37.58;;;14.95;;
36211;SDS011;22247;48.586;13.492;2024-03-08T03:46:33;38.40;;;15.48;;
36211;SDS011;22247;48.586;13.492;2024-03-08T03:48:58;34.05;;;14.15;;
36211;SDS011;22247;48.586;13.492;2024-03-08T03:51:23;42.53;;;15.25;;
36211;SDS011;22247;48.586;13.492;2024-03-08T03:53:50;38.92;;;15.93;;
36211;SDS011;22247;48.586;13.492;2024-03-08T03:56:18;43.10;;;15.73;;
36211;SDS011;22247;48.586;13.492;2024-03-08T03:58:49;39.55;;;15.13;;
36211;SDS011;22247;48.586;13.492;2024-03-08T04:01:16;41.97;;;15.88;;
36211;SDS011;22247;48.586;13.492;2024-03-08T04:03:41;34.42;;;14.20;;
36211;SDS011;22247;48.586;13.492;2024-03-08T04:06:08;42.47;;;15.68;;
36211;SDS011;22247;48.586;13.492;2024-03-08T04:08:35;37.72;;;14.75;;
36211;SDS011;22247;48.586;13.492;2024-03-08T04:11:00;40.20;;;15.50;;
36211;SDS011;22247;48.586;13.492;2024-03-08T04:13:27;37.35;;;15.25;;
36211;SDS011;22247;48.586;13.492;2024-03-08T04:15:52;41.78;;;15.23;;
36211;SDS011;22247;48.586;13.492;2024-03-08T04:18:16;38.15;;;14.90;;
36211;SDS011;22247;48.586;13.492;2024-03-08T04:20:43;44.17;;;16.35;;
36211;SDS011;22247;48.586;13.492;2024-03-08T04:23:07;39.13;;;15.68;;
36211;SDS011;22247;48.586;13.492;2024-03-08T04:25:32;38.05;;;16.38;;
36211;SDS011;22247;48.586;13.492;2024-03-08T04:30:24;37.60;;;16.00;;
36211;SDS011;22247;48.586;13.492;2024-03-08T04:32:49;40.25;;;16.40;;
36211;SDS011;22247;48.586;13.492;2024-03-08T04:35:18;37.00;;;15.88;;
36211;SDS011;22247;48.586;13.492;2024-03-08T04:37:48;34.28;;;15.55;;
36211;SDS011;22247;48.586;13.492;2024-03-08T04:40:17;46.25;;;17.25;;
36211;SDS011;22247;48.586;13.492;2024-03-08T04:42:42;38.95;;;16.98;;
36211;SDS011;22247;48.586;13.492;2024-03-08T04:45:09;39.30;;;17.65;;
36211;SDS011;22247;48.586;13.492;2024-03-08T04:47:37;40.00;;;15.98;;
36211;SDS011;22247;48.586;13.492;2024-03-08T04:50:02;39.08;;;15.55;;
36211;SDS011;22247;48.586;13.492;2024-03-08T04:52:30;41.08;;;17.25;;
36211;SDS011;22247;48.586;13.492;2024-03-08T04:54:57;36.28;;;14.63;;
36211;SDS011;22247;48.586;13.492;2024-03-08T04:57:24;43.53;;;16.08;;
36211;SDS011;22247;48.586;13.492;2024-03-08T04:59:52;36.22;;;15.50;;
36211;SDS011;22247;48.586;13.492;2024-03-08T05:02:21;40.22;;;16.75;;
36211;SDS011;22247;48.586;13.492;2024-03-08T05:04:48;38.00;;;15.82;;
36211;SDS011;22247;48.586;13.492;2024-03-08T05:07:13;39.90;;;16.70;;
36211;SDS011;22247;48.586;13.492;2024-03-08T05:09:38;40.10;;;17.40;;
36211;SDS011;22247;48.586;13.492;2024-03-08T05:12:04;34.95;;;15.40;;
36211;SDS011;22247;48.586;13.492;2024-03-08T05:14:29;39.90;;;15.85;;
36211;SDS011;22247;48.586;13.492;2024-03-08T05:16:53;45.65;;;17.67;;
36211;SDS011;22247;48.586;13.492;2024-03-08T05:19:18;46.05;;;17.23;;
36211;SDS011;22247;48.586;13.492;2024-03-08T05:21:46;38.55;;;14.65;;
36211;SDS011;22247;48.586;13.492;2024-03-08T05:24:14;44.75;;;17.60;;
36211;SDS011;22247;48.586;13.492;2024-03-08T05:26:41;42.17;;;16.77;;
36211;SDS011;22247;48.586;13.492;2024-03-08T05:29:06;44.60;;;17.98;;
36211;SDS011;22247;48.586;13.492;2024-03-08T05:31:45;39.97;;;17.05;;
36211;SDS011;22247;48.586;13.492;2024-03-08T05:34:14;41.97;;;16.30;;
36211;SDS011;22247;48.586;13.492;2024-03-08T05:36:46;44.75;;;18.05;;
36211;SDS011;22247;48.586;13.492;2024-03-08T05:39:11;44.80;;;17.65;;
36211;SDS011;22247;48.586;13.492;2024-03-08T05:41:44;45.20;;;17.75;;
36211;SDS011;22247;48.586;13.492;2024-03-08T05:44:11;44.30;;;17.80;;
36211;SDS011;22247;48.586;13.492;2024-03-08T05:46:37;51.25;;;20.05;;
36211;SDS011;22247;48.586;13.492;2024-03-08T05:49:08;49.83;;;20.38;;
36211;SDS011;22247;48.586;13.492;2024-03-08T05:51:34;47.78;;;19.58;;
36211;SDS011;22247;48.586;13.492;2024-03-08T05:54:03;54.72;;;22.92;;
36211;SDS011;22247;48.586;13.492;2024-03-08T05:56:33;61.28;;;24.08;;
36211;SDS011;22247;48.586;13.492;2024-03-08T05:58:57;59.33;;;23.00;;
36211;SDS011;22247;48.586;13.492;2024-03-08T06:01:24;51.15;;;22.10;;
36211;SDS011;22247;48.586;13.492;2024-03-08T06:03:50;49.55;;;20.90;;
36211;SDS011;22247;48.586;13.492;2024-03-08T06:06:19;59.53;;;22.85;;
36211;SDS011;22247;48.586;13.492;2024-03-08T06:08:47;58.55;;;23.83;;
36211;SDS011;22247;48.586;13.492;2024-03-08T06:11:13;46.35;;;19.17;;
36211;SDS011;22247;48.586;13.492;2024-03-08T06:13:38;47.88;;;19.13;;
36211;SDS011;22247;48.586;13.492;2024-03-08T06:16:08;38.33;;;16.05;;
36211;SDS011;22247;48.586;13.492;2024-03-08T06:18:35;38.85;;;17.98;;
36211;SDS011;22247;48.586;13.492;2024-03-08T06:21:03;46.25;;;18.10;;
36211;SDS011;22247;48.586;13.492;2024-03-08T06:23:31;42.85;;;18.60;;
36211;SDS011;22247;48.586;13.492;2024-03-08T06:26:08;46.88;;;19.92;;
36211;SDS011;22247;48.586;13.492;2024-03-08T06:28:37;46.70;;;17.83;;
36211;SDS011;22247;48.586;13.492;2024-03-08T06:31:04;44.40;;;17.67;;
36211;SDS011;22247;48.586;13.492;2024-03-08T06:33:28;40.03;;;16.80;;
36211;SDS011;22247;48.586;13.492;2024-03-08T06:35:54;42.20;;;17.75;;
36211;SDS011;22247;48.586;13.492;2024-03-08T06:38:22;41.97;;;16.58;;
36211;SDS011;22247;48.586;13.492;2024-03-08T06:40:49;40.45;;;17.33;;
36211;SDS011;22247;48.586;13.492;2024-03-08T06:43:16;50.25;;;17.73;;
36211;SDS011;22247;48.586;13.492;2024-03-08T06:45:45;49.30;;;19.85;;
36211;SDS011;22247;48.586;13.492;2024-03-08T06:48:12;44.70;;;18.75;;
36211;SDS011;22247;48.586;13.492;2024-03-08T06:50:36;46.90;;;16.85;;
36211;SDS011;22247;48.586;13.492;2024-03-08T06:53:04;46.58;;;17.67;;
36211;SDS011;22247;48.586;13.492;2024-03-08T06:55:31;43.08;;;17.73;;
36211;SDS011;22247;48.586;13.492;2024-03-08T06:58:00;43.58;;;17.77;;
36211;SDS011;22247;48.586;13.492;2024-03-08T07:00:30;47.15;;;17.58;;
36211;SDS011;22247;48.586;13.492;2024-03-08T07:02:55;52.92;;;17.95;;
36211;SDS011;22247;48.586;13.492;2024-03-08T07:05:21;44.88;;;17.33;;
36211;SDS011;22247;48.586;13.492;2024-03-08T07:07:47;39.85;;;17.05;;
36211;SDS011;22247;48.586;13.492;2024-03-08T07:10:15;42.17;;;17.58;;
36211;SDS011;22247;48.586;13.492;2024-03-08T07:12:43;37.20;;;17.08;;
36211;SDS011;22247;48.586;13.492;2024-03-08T07:15:13;43.05;;;18.52;;
36211;SDS011;22247;48.586;13.492;2024-03-08T07:17:42;41.42;;;17.08;;
36211;SDS011;22247;48.586;13.492;2024-03-08T07:20:08;38.42;;;16.98;;
36211;SDS011;22247;48.586;13.492;2024-03-08T07:22:37;46.15;;;17.65;;
36211;SDS011;22247;48.586;13.492;2024-03-08T07:25:09;40.88;;;17.92;;
36211;SDS011;22247;48.586;13.492;2024-03-08T07:27:46;46.80;;;19.10;;
36211;SDS011;22247;48.586;13.492;2024-03-08T07:30:20;46.70;;;18.38;;
36211;SDS011;22247;48.586;13.492;2024-03-08T07:33:09;39.83;;;18.70;;
36211;SDS011;22247;48.586;13.492;2024-03-08T07:35:37;36.90;;;17.02;;
36211;SDS011;22247;48.586;13.492;2024-03-08T07:40:29;37.95;;;16.08;;
36211;SDS011;22247;48.586;13.492;2024-03-08T07:42:54;35.78;;;15.18;;
36211;SDS011;22247;48.586;13.492;2024-03-08T07:45:19;31.67;;;14.40;;
36211;SDS011;22247;48.586;13.492;2024-03-08T07:47:43;30.02;;;14.13;;
36211;SDS011;22247;48.586;13.492;2024-03-08T07:50:08;34.92;;;13.38;;
36211;SDS011;22247;48.586;13.492;2024-03-08T07:52:33;36.55;;;16.00;;
36211;SDS011;22247;48.586;13.492;2024-03-08T07:54:59;32.13;;;14.25;;
36211;SDS011;22247;48.586;13.492;2024-03-08T07:57:24;32.13;;;14.60;;
36211;SDS011;22247;48.586;13.492;2024-03-08T07:59:50;30.08;;;13.32;;
36211;SDS011;22247;48.586;13.492;2024-03-08T08:02:14;27.63;;;14.00;;
36211;SDS011;22247;48.586;13.492;2024-03-08T08:04:39;32.83;;;14.63;;
36211;SDS011;22247;48.586;13.492;2024-03-08T08:07:03;32.65;;;14.35;;
36211;SDS011;22247;48.586;13.492;2024-03-08T08:09:28;30.20;;;13.10;;
36211;SDS011;22247;48.586;13.492;2024-03-08T08:11:52;29.17;;;13.00;;
36211;SDS011;22247;48.586;13.492;2024-03-08T08:14:17;24.17;;;10.27;;
36211;SDS011;22247;48.586;13.492;2024-03-08T08:16:44;24.90;;;12.00;;
36211;SDS011;22247;48.586;13.492;2024-03-08T08:19:12;24.63;;;12.27;;
36211;SDS011;22247;48.586;13.492;2024-03-08T08:21:36;22.60;;;11.70;;
36211;SDS011;22247;48.586;13.492;2024-03-08T08:26:27;26.00;;;12.00;;
36211;SDS011;22247;48.586;13.492;2024-03-08T08:28:51;25.42;;;11.50;;
36211;SDS011;22247;48.586;13.492;2024-03-08T08:31:19;23.05;;;11.70;;
36211;SDS011;22247;48.586;13.492;2024-03-08T08:33:44;19.00;;;9.35;;
36211;SDS011;22247;48.586;13.492;2024-03-08T08:36:08;22.42;;;11.02;;
36211;SDS011;22247;48.586;13.492;2024-03-08T08:41:00;20.92;;;9.93;;
36211;SDS011;22247;48.586;13.492;2024-03-08T08:43:30;21.83;;;10.02;;
36211;SDS011;22247;48.586;13.492;2024-03-08T08:45:57;22.40;;;10.30;;
36211;SDS011;22247;48.586;13.492;2024-03-08T08:48:25;16.65;;;7.45;;
36211;SDS011;22247;48.586;13.492;2024-03-08T08:50:49;21.38;;;10.35;;
36211;SDS011;22247;48.586;13.492;2024-03-08T08:53:18;18.15;;;8.85;;
36211;SDS011;22247;48.586;13.492;2024-03-08T08:55:43;19.25;;;8.27;;
36211;SDS011;22247;48.586;13.492;2024-03-08T08:58:09;16.52;;;8.27;;
36211;SDS011;22247;48.586;13.492;2024-03-08T09:00:35;20.40;;;9.38;;
36211;SDS011;22247;48.586;13.492;2024-03-08T09:03:00;20.48;;;10.25;;
36211;SDS011;22247;48.586;13.492;2024-03-08T09:05:26;17.27;;;7.25;;
36211;SDS011;22247;48.586;13.492;2024-03-08T09:07:50;19.70;;;9.50;;
36211;SDS011;22247;48.586;13.492;2024-03-08T09:10:17;18.90;;;8.77;;
36211;SDS011;22247;48.586;13.492;2024-03-08T09:15:09;16.50;;;7.80;;
36211;SDS011;22247;48.586;13.492;2024-03-08T09:17:38;16.55;;;8.52;;
36211;SDS011;22247;48.586;13.492;2024-03-08T09:20:03;15.63;;;7.88;;
36211;SDS011;22247;48.586;13.492;2024-03-08T09:22:31;17.38;;;6.95;;
36211;SDS011;22247;48.586;13.492;2024-03-08T09:24:58;13.35;;;7.25;;
36211;SDS011;22247;48.586;13.492;2024-03-08T09:27:25;15.02;;;7.63;;
36211;SDS011;22247;48.586;13.492;2024-03-08T09:29:55;14.88;;;6.93;;
36211;SDS011;22247;48.586;13.492;2024-03-08T09:32:19;13.70;;;7.57;;
36211;SDS011;22247;48.586;13.492;2024-03-08T09:37:09;12.60;;;6.15;;
36211;SDS011;22247;48.586;13.492;2024-03-08T09:39:36;13.82;;;7.45;;
36211;SDS011;22247;48.586;13.492;2024-03-08T09:42:01;16.73;;;7.90;;
36211;SDS011;22247;48.586;13.492;2024-03-08T09:44:29;15.32;;;7.70;;
36211;SDS011;22247;48.586;13.492;2024-03-08T09:46:59;15.10;;;7.78;;
36211;SDS011;22247;48.586;13.492;2024-03-08T09:49:27;12.43;;;5.38;;
36211;SDS011;22247;48.586;13.492;2024-03-08T09:51:54;12.10;;;6.47;;
36211;SDS011;22247;48.586;13.492;2024-03-08T09:54:24;15.00;;;6.53;;
36211;SDS011;22247;48.586;13.492;2024-03-08T09:56:50;13.45;;;6.78;;
36211;SDS011;22247;48.586;13.492;2024-03-08T09:59:20;16.98;;;5.50;;
36211;SDS011;22247;48.586;13.492;2024-03-08T10:02:05;13.60;;;5.43;;
36211;SDS011;22247;48.586;13.492;2024-03-08T10:04:30;14.68;;;6.97;;
36211;SDS011;22247;48.586;13.492;2024-03-08T10:07:00;12.45;;;5.00;;
36211;SDS011;22247;48.586;13.492;2024-03-08T10:09:30;9.13;;;5.30;;
36211;SDS011;22247;48.586;13.492;2024-03-08T10:11:56;15.15;;;6.82;;
36211;SDS011;22247;48.586;13.492;2024-03-08T10:14:24;13.18;;;5.95;;
36211;SDS011;22247;48.586;13.492;2024-03-08T10:16:51;11.65;;;7.10;;
36211;SDS011;22247;48.586;13.492;2024-03-08T10:19:19;13.50;;;6.55;;
36211;SDS011;22247;48.586;13.492;2024-03-08T10:21:47;13.00;;;6.68;;
36211;SDS011;22247;48.586;13.492;2024-03-08T10:24:25;13.95;;;7.13;;
36211;SDS011;22247;48.586;13.492;2024-03-08T10:26:58;14.07;;;7.47;;
36211;SDS011;22247;48.586;13.492;2024-03-08T10:31:55;14.38;;;6.75;;
36211;SDS011;22247;48.586;13.492;2024-03-08T10:34:22;11.57;;;5.70;;
36211;SDS011;22247;48.586;13.492;2024-03-08T10:36:52;11.68;;;5.68;;
36211;SDS011;22247;48.586;13.492;2024-03-08T10:39:24;10.52;;;5.53;;
36211;SDS011;22247;48.586;13.492;2024-03-08T10:41:52;11.75;;;5.88;;
36211;SDS011;22247;48.586;13.492;2024-03-08T10:44:25;11.32;;;5.22;;
36211;SDS011;22247;48.586;13.492;2024-03-08T10:49:44;7.57;;;4.55;;
36211;SDS011;22247;48.586;13.492;2024-03-08T10:52:16;12.98;;;5.28;;
36211;SDS011;22247;48.586;13.492;2024-03-08T10:54:41;11.07;;;5.22;;
36211;SDS011;22247;48.586;13.492;2024-03-08T10:57:07;9.90;;;5.13;;
36211;SDS011;22247;48.586;13.492;2024-03-08T10:59:32;14.07;;;7.15;;
36211;SDS011;22247;48.586;13.492;2024-03-08T11:04:25;14.50;;;6.15;;
36211;SDS011;22247;48.586;13.492;2024-03-08T11:06:53;9.45;;;5.20;;
36211;SDS011;22247;48.586;13.492;2024-03-08T11:11:43;12.77;;;5.68;;
36211;SDS011;22247;48.586;13.492;2024-03-08T11:14:42;8.73;;;4.47;;
36211;SDS011;22247;48.586;13.492;2024-03-08T11:16:53;11.98;;;5.55;;
36211;SDS011;22247;48.586;13.492;2024-03-08T11:21:45;15.38;;;6.55;;
36211;SDS011;22247;48.586;13.492;2024-03-08T11:24:13;10.45;;;5.60;;
36211;SDS011;22247;48.586;13.492;2024-03-08T11:26:40;11.82;;;6.10;;
36211;SDS011;22247;48.586;13.492;2024-03-08T11:31:49;10.98;;;6.00;;
36211;SDS011;22247;48.586;13.492;2024-03-08T11:36:42;12.32;;;6.20;;
36211;SDS011;22247;48.586;13.492;2024-03-08T11:39:07;9.88;;;5.20;;
36211;SDS011;22247;48.586;13.492;2024-03-08T11:41:38;12.02;;;4.95;;
36211;SDS011;22247;48.586;13.492;2024-03-08T11:44:06;12.20;;;4.65;;
36211;SDS011;22247;48.586;13.492;2024-03-08T11:46:42;8.75;;;4.65;;
36211;SDS011;22247;48.586;13.492;2024-03-08T11:49:12;8.75;;;4.55;;
36211;SDS011;22247;48.586;13.492;2024-03-08T11:51:39;10.27;;;5.47;;
36211;SDS011;22247;48.586;13.492;2024-03-08T11:54:05;7.13;;;3.92;;
36211;SDS011;22247;48.586;13.492;2024-03-08T11:56:31;7.85;;;4.43;;
36211;SDS011;22247;48.586;13.492;2024-03-08T11:58:58;9.73;;;4.60;;
36211;SDS011;22247;48.586;13.492;2024-03-08T12:01:24;9.80;;;4.25;;
36211;SDS011;22247;48.586;13.492;2024-03-08T12:03:53;10.70;;;4.68;;
36211;SDS011;22247;48.586;13.492;2024-03-08T12:06:21;12.85;;;5.07;;
36211;SDS011;22247;48.586;13.492;2024-03-08T12:08:46;9.55;;;4.68;;
36211;SDS011;22247;48.586;13.492;2024-03-08T12:11:13;8.88;;;4.75;;
36211;SDS011;22247;48.586;13.492;2024-03-08T12:16:03;11.27;;;5.05;;
36211;SDS011;22247;48.586;13.492;2024-03-08T12:18:28;7.40;;;4.43;;
36211;SDS011;22247;48.586;13.492;2024-03-08T12:24:01;9.98;;;5.07;;
36211;SDS011;22247;48.586;13.492;2024-03-08T12:26:32;9.10;;;4.28;;
36211;SDS011;22247;48.586;13.492;2024-03-08T12:29:16;8.57;;;3.88;;
36211;SDS011;22247;48.586;13.492;2024-03-08T12:31:46;11.55;;;5.05;;
36211;SDS011;22247;48.586;13.492;2024-03-08T12:34:11;8.45;;;4.45;;
36211;SDS011;22247;48.586;13.492;2024-03-08T12:36:38;8.70;;;3.03;;
36211;SDS011;22247;48.586;13.492;2024-03-08T12:39:08;5.35;;;2.83;;
36211;SDS011;22247;48.586;13.492;2024-03-08T12:41:39;9.73;;;4.22;;
36211;SDS011;22247;48.586;13.492;2024-03-08T12:44:07;9.90;;;4.30;;
36211;SDS011;22247;48.586;13.492;2024-03-08T12:46:35;5.97;;;2.70;;
36211;SDS011;22247;48.586;13.492;2024-03-08T12:51:27;6.50;;;3.22;;
36211;SDS011;22247;48.586;13.492;2024-03-08T12:53:53;8.27;;;3.97;;
36211;SDS011;22247;48.586;13.492;2024-03-08T12:56:28;9.23;;;3.85;;
36211;SDS011;22247;48.586;13.492;2024-03-08T12:58:55;10.20;;;4.10;;
36211;SDS011;22247;48.586;13.492;2024-03-08T13:01:20;7.70;;;3.83;;
36211;SDS011;22247;48.586;13.492;2024-03-08T13:03:49;11.00;;;3.83;;
36211;SDS011;22247;48.586;13.492;2024-03-08T13:06:14;7.82;;;3.63;;
36211;SDS011;22247;48.586;13.492;2024-03-08T13:08:39;10.20;;;3.72;;
36211;SDS011;22247;48.586;13.492;2024-03-08T13:11:05;6.50;;;2.83;;
36211;SDS011;22247;48.586;13.492;2024-03-08T13:13:31;7.30;;;3.58;;
36211;SDS011;22247;48.586;13.492;2024-03-08T13:15:59;11.90;;;4.50;;
36211;SDS011;22247;48.586;13.492;2024-03-08T13:18:27;9.32;;;3.30;;
36211;SDS011;22247;48.586;13.492;2024-03-08T13:20:54;6.80;;;2.97;;
36211;SDS011;22247;48.586;13.492;2024-03-08T13:23:21;7.47;;;3.78;;
36211;SDS011;22247;48.586;13.492;2024-03-08T13:28:11;9.48;;;3.25;;
36211;SDS011;22247;48.586;13.492;2024-03-08T13:30:37;7.63;;;3.20;;
36211;SDS011;22247;48.586;13.492;2024-03-08T13:33:05;8.07;;;3.35;;
36211;SDS011;22247;48.586;13.492;2024-03-08T13:35:31;8.00;;;3.65;;
36211;SDS011;22247;48.586;13.492;2024-03-08T13:37:58;8.98;;;3.55;;
36211;SDS011;22247;48.586;13.492;2024-03-08T13:40:27;9.13;;;2.95;;
36211;SDS011;22247;48.586;13.492;2024-03-08T13:45:19;9.27;;;3.42;;
36211;SDS011;22247;48.586;13.492;2024-03-08T13:47:47;7.18;;;3.63;;
36211;SDS011;22247;48.586;13.492;2024-03-08T13:50:15;7.63;;;3.30;;
36211;SDS011;22247;48.586;13.492;2024-03-08T13:52:45;8.13;;;3.40;;
36211;SDS011;22247;48.586;13.492;2024-03-08T13:55:10;6.45;;;3.15;;
36211;SDS011;22247;48.586;13.492;2024-03-08T13:57:39;5.32;;;2.58;;
36211;SDS011;22247;48.586;13.492;2024-03-08T14:00:04;6.10;;;2.30;;
36211;SDS011;22247;48.586;13.492;2024-03-08T14:02:31;6.20;;;3.00;;
36211;SDS011;22247;48.586;13.492;2024-03-08T14:07:21;5.68;;;2.85;;
36211;SDS011;22247;48.586;13.492;2024-03-08T14:09:47;6.70;;;2.80;;
36211;SDS011;22247;48.586;13.492;2024-03-08T14:12:12;4.85;;;2.42;;
36211;SDS011;22247;48.586;13.492;2024-03-08T14:14:38;6.90;;;3.25;;
36211;SDS011;22247;48.586;13.492;2024-03-08T14:19:30;7.40;;;3.17;;
36211;SDS011;22247;48.586;13.492;2024-03-08T14:21:55;5.03;;;2.38;;
36211;SDS011;22247;48.586;13.492;2024-03-08T14:26:47;6.40;;;2.70;;
36211;SDS011;22247;48.586;13.492;2024-03-08T14:29:13;5.47;;;2.75;;
36211;SDS011;22247;48.586;13.492;2024-03-08T14:34:04;8.57;;;3.13;;
36211;SDS011;22247;48.586;13.492;2024-03-08T14:36:29;5.97;;;3.35;;
36211;SDS011;22247;48.586;13.492;2024-03-08T14:38:54;7.68;;;3.30;;
36211;SDS011;22247;48.586;13.492;2024-03-08T14:43:48;8.18;;;3.45;;
36211;SDS011;22247;48.586;13.492;2024-03-08T14:46:13;7.63;;;3.65;;
36211;SDS011;22247;48.586;13.492;2024-03-08T14:48:41;6.07;;;3.03;;
36211;SDS011;22247;48.586;13.492;2024-03-08T14:51:08;8.65;;;3.42;;
36211;SDS011;22247;48.586;13.492;2024-03-08T14:53:35;8.90;;;3.80;;
36211;SDS011;22247;48.586;13.492;2024-03-08T14:58:25;8.35;;;4.15;;
36211;SDS011;22247;48.586;13.492;2024-03-08T15:00:51;6.40;;;3.30;;
36211;SDS011;22247;48.586;13.492;2024-03-08T15:03:19;9.25;;;3.45;;
36211;SDS011;22247;48.586;13.492;2024-03-08T15:08:12;10.25;;;4.32;;
36211;SDS011;22247;48.586;13.492;2024-03-08T15:10:43;10.07;;;4.45;;
36211;SDS011;22247;48.586;13.492;2024-03-08T15:13:08;8.80;;;3.70;;
36211;SDS011;22247;48.586;13.492;2024-03-08T15:15:44;6.60;;;3.22;;
36211;SDS011;22247;48.586;13.492;2024-03-08T15:18:20;7.78;;;3.85;;
36211;SDS011;22247;48.586;13.492;2024-03-08T15:20:52;6.70;;;3.40;;
36211;SDS011;22247;48.586;13.492;2024-03-08T15:23:17;5.68;;;2.70;;
36211;SDS011;22247;48.586;13.492;2024-03-08T15:25:44;9.38;;;3.33;;